sensor_id;sensor_type;location;lat;lon;timestamp;P1;durP1;ratioP1;P2;durP2;ratioP2
30127;SDS011;16942;53.196;6.592;2023-04-03T00:00:35;4.43;;;1.47;;
30127;SDS011;16942;53.196;6.592;2023-04-03T00:03:01;2.87;;;1.23;;
30127;SDS011;16942;53.196;6.592;2023-04-03T00:05:27;0.90;;;0.70;;
30127;SDS011;16942;53.196;6.592;2023-04-03T00:07:53;2.53;;;1.33;;
30127;SDS011;16942;53.196;6.592;2023-04-03T00:10:19;1.57;;;1.20;;
30127;SDS011;16942;53.196;6.592;2023-04-03T00:12:45;2.10;;;1.00;;
30127;SDS011;16942;53.196;6.592;2023-04-03T00:15:11;2.10;;;1.03;;
30127;SDS011;16942;53.196;6.592;2023-04-03T00:17:37;2.13;;;1.00;;
30127;SDS011;16942;53.196;6.592;2023-04-03T00:20:03;6.90;;;1.00;;
30127;SDS011;16942;53.196;6.592;2023-04-03T00:22:30;2.87;;;1.13;;
30127;SDS011;16942;53.196;6.592;2023-04-03T00:24:56;1.90;;;0.90;;
30127;SDS011;16942;53.196;6.592;2023-04-03T00:27:22;1.20;;;0.93;;
30127;SDS011;16942;53.196;6.592;2023-04-03T00:29:48;1.80;;;1.20;;
30127;SDS011;16942;53.196;6.592;2023-04-03T00:32:14;1.90;;;0.93;;
30127;SDS011;16942;53.196;6.592;2023-04-03T00:34:40;3.30;;;0.90;;
30127;SDS011;16942;53.196;6.592;2023-04-03T00:37:06;1.00;;;0.90;;
30127;SDS011;16942;53.196;6.592;2023-04-03T00:39:32;1.37;;;0.80;;
30127;SDS011;16942;53.196;6.592;2023-04-03T00:41:58;3.13;;;1.10;;
30127;SDS011;16942;53.196;6.592;2023-04-03T00:46:53;3.23;;;1.20;;
30127;SDS011;16942;53.196;6.592;2023-04-03T00:49:19;3.80;;;0.93;;
30127;SDS011;16942;53.196;6.592;2023-04-03T00:51:45;4.93;;;1.10;;
30127;SDS011;16942;53.196;6.592;2023-04-03T00:54:12;2.03;;;1.13;;
30127;SDS011;16942;53.196;6.592;2023-04-03T00:56:38;3.27;;;0.90;;
30127;SDS011;16942;53.196;6.592;2023-04-03T00:59:06;4.77;;;1.27;;
30127;SDS011;16942;53.196;6.592;2023-04-03T01:01:33;2.10;;;1.00;;
30127;SDS011;16942;53.196;6.592;2023-04-03T01:04:00;2.00;;;0.90;;
30127;SDS011;16942;53.196;6.592;2023-04-03T01:06:29;2.90;;;1.40;;
30127;SDS011;16942;53.196;6.592;2023-04-03T01:08:57;2.20;;;0.90;;
30127;SDS011;16942;53.196;6.592;2023-04-03T01:11:24;1.90;;;1.00;;
30127;SDS011;16942;53.196;6.592;2023-04-03T01:13:51;1.07;;;0.80;;
30127;SDS011;16942;53.196;6.592;2023-04-03T01:16:17;6.03;;;1.10;;
30127;SDS011;16942;53.196;6.592;2023-04-03T01:18:43;2.40;;;1.10;;
30127;SDS011;16942;53.196;6.592;2023-04-03T01:23:52;3.90;;;1.20;;
30127;SDS011;16942;53.196;6.592;2023-04-03T01:26:19;2.20;;;1.00;;
30127;SDS011;16942;53.196;6.592;2023-04-03T01:28:46;2.50;;;1.13;;
30127;SDS011;16942;53.196;6.592;2023-04-03T01:31:20;4.20;;;1.23;;
30127;SDS011;16942;53.196;6.592;2023-04-03T01:33:48;1.77;;;1.10;;
30127;SDS011;16942;53.196;6.592;2023-04-03T01:36:16;1.63;;;1.00;;
30127;SDS011;16942;53.196;6.592;2023-04-03T01:38:42;7.37;;;1.57;;
30127;SDS011;16942;53.196;6.592;2023-04-03T01:41:09;1.67;;;1.00;;
30127;SDS011;16942;53.196;6.592;2023-04-03T01:43:35;3.70;;;1.10;;
30127;SDS011;16942;53.196;6.592;2023-04-03T01:46:01;1.77;;;1.10;;
30127;SDS011;16942;53.196;6.592;2023-04-03T01:48:27;2.83;;;1.03;;
30127;SDS011;16942;53.196;6.592;2023-04-03T01:50:53;3.63;;;1.37;;
30127;SDS011;16942;53.196;6.592;2023-04-03T01:53:19;2.10;;;0.97;;
30127;SDS011;16942;53.196;6.592;2023-04-03T01:55:46;3.73;;;1.23;;
30127;SDS011;16942;53.196;6.592;2023-04-03T01:58:12;3.60;;;1.23;;
30127;SDS011;16942;53.196;6.592;2023-04-03T02:00:38;3.43;;;1.20;;
30127;SDS011;16942;53.196;6.592;2023-04-03T02:03:04;2.57;;;1.13;;
30127;SDS011;16942;53.196;6.592;2023-04-03T02:05:30;1.30;;;0.93;;
30127;SDS011;16942;53.196;6.592;2023-04-03T02:07:56;2.70;;;1.10;;
30127;SDS011;16942;53.196;6.592;2023-04-03T02:10:22;3.53;;;1.20;;
30127;SDS011;16942;53.196;6.592;2023-04-03T02:12:48;2.57;;;1.20;;
30127;SDS011;16942;53.196;6.592;2023-04-03T02:15:14;2.77;;;1.23;;
30127;SDS011;16942;53.196;6.592;2023-04-03T02:17:40;4.37;;;1.33;;
30127;SDS011;16942;53.196;6.592;2023-04-03T02:20:06;3.80;;;1.03;;
30127;SDS011;16942;53.196;6.592;2023-04-03T02:22:33;3.60;;;1.30;;
30127;SDS011;16942;53.196;6.592;2023-04-03T02:24:59;5.17;;;1.23;;
30127;SDS011;16942;53.196;6.592;2023-04-03T02:27:25;3.97;;;1.00;;
30127;SDS011;16942;53.196;6.592;2023-04-03T02:29:51;4.30;;;1.30;;
30127;SDS011;16942;53.196;6.592;2023-04-03T02:32:18;1.57;;;1.17;;
30127;SDS011;16942;53.196;6.592;2023-04-03T02:34:44;3.73;;;1.50;;
30127;SDS011;16942;53.196;6.592;2023-04-03T02:37:10;8.17;;;1.47;;
30127;SDS011;16942;53.196;6.592;2023-04-03T02:39:36;2.00;;;1.07;;
30127;SDS011;16942;53.196;6.592;2023-04-03T02:42:02;4.47;;;1.23;;
30127;SDS011;16942;53.196;6.592;2023-04-03T02:44:28;3.07;;;1.30;;
30127;SDS011;16942;53.196;6.592;2023-04-03T02:46:54;2.23;;;1.43;;
30127;SDS011;16942;53.196;6.592;2023-04-03T02:49:20;4.07;;;1.40;;
30127;SDS011;16942;53.196;6.592;2023-04-03T02:51:46;3.97;;;1.43;;
30127;SDS011;16942;53.196;6.592;2023-04-03T02:54:12;2.27;;;1.23;;
30127;SDS011;16942;53.196;6.592;2023-04-03T02:56:38;4.13;;;1.30;;
30127;SDS011;16942;53.196;6.592;2023-04-03T02:59:04;5.37;;;1.40;;
30127;SDS011;16942;53.196;6.592;2023-04-03T03:01:31;4.97;;;1.33;;
30127;SDS011;16942;53.196;6.592;2023-04-03T03:03:58;5.00;;;1.20;;
30127;SDS011;16942;53.196;6.592;2023-04-03T03:06:24;2.77;;;1.70;;
30127;SDS011;16942;53.196;6.592;2023-04-03T03:08:50;2.83;;;1.27;;
30127;SDS011;16942;53.196;6.592;2023-04-03T03:11:16;2.63;;;1.40;;
30127;SDS011;16942;53.196;6.592;2023-04-03T03:13:42;3.00;;;1.30;;
30127;SDS011;16942;53.196;6.592;2023-04-03T03:16:08;2.23;;;1.47;;
30127;SDS011;16942;53.196;6.592;2023-04-03T03:18:34;4.67;;;1.40;;
30127;SDS011;16942;53.196;6.592;2023-04-03T03:21:00;3.40;;;1.63;;
30127;SDS011;16942;53.196;6.592;2023-04-03T03:23:27;5.70;;;1.70;;
30127;SDS011;16942;53.196;6.592;2023-04-03T03:25:54;3.13;;;1.53;;
30127;SDS011;16942;53.196;6.592;2023-04-03T03:28:22;5.17;;;1.37;;
30127;SDS011;16942;53.196;6.592;2023-04-03T03:30:48;6.93;;;1.70;;
30127;SDS011;16942;53.196;6.592;2023-04-03T03:33:14;1.80;;;1.10;;
30127;SDS011;16942;53.196;6.592;2023-04-03T03:35:42;2.60;;;1.37;;
30127;SDS011;16942;53.196;6.592;2023-04-03T03:38:08;1.90;;;1.30;;
30127;SDS011;16942;53.196;6.592;2023-04-03T03:40:34;2.03;;;1.10;;
30127;SDS011;16942;53.196;6.592;2023-04-03T03:43:00;3.90;;;1.27;;
30127;SDS011;16942;53.196;6.592;2023-04-03T03:45:26;2.10;;;1.40;;
30127;SDS011;16942;53.196;6.592;2023-04-03T03:47:52;2.90;;;1.30;;
30127;SDS011;16942;53.196;6.592;2023-04-03T03:50:18;3.40;;;1.57;;
30127;SDS011;16942;53.196;6.592;2023-04-03T03:52:44;1.70;;;1.60;;
30127;SDS011;16942;53.196;6.592;2023-04-03T03:55:11;4.83;;;1.73;;
30127;SDS011;16942;53.196;6.592;2023-04-03T03:57:37;4.67;;;1.60;;
30127;SDS011;16942;53.196;6.592;2023-04-03T04:00:03;5.20;;;2.00;;
30127;SDS011;16942;53.196;6.592;2023-04-03T04:02:29;7.23;;;1.97;;
30127;SDS011;16942;53.196;6.592;2023-04-03T04:04:55;3.13;;;1.73;;
30127;SDS011;16942;53.196;6.592;2023-04-03T04:07:21;8.17;;;2.37;;
30127;SDS011;16942;53.196;6.592;2023-04-03T04:09:48;5.13;;;1.80;;
30127;SDS011;16942;53.196;6.592;2023-04-03T04:12:14;6.07;;;2.20;;
30127;SDS011;16942;53.196;6.592;2023-04-03T04:14:41;3.47;;;1.30;;
30127;SDS011;16942;53.196;6.592;2023-04-03T04:17:07;2.33;;;1.60;;
30127;SDS011;16942;53.196;6.592;2023-04-03T04:19:33;5.43;;;1.90;;
30127;SDS011;16942;53.196;6.592;2023-04-03T04:21:59;4.23;;;1.60;;
30127;SDS011;16942;53.196;6.592;2023-04-03T04:24:25;3.53;;;1.70;;
30127;SDS011;16942;53.196;6.592;2023-04-03T04:26:51;5.90;;;2.13;;
30127;SDS011;16942;53.196;6.592;2023-04-03T04:29:17;2.33;;;1.43;;
30127;SDS011;16942;53.196;6.592;2023-04-03T04:31:43;4.60;;;1.93;;
30127;SDS011;16942;53.196;6.592;2023-04-03T04:34:09;8.77;;;2.20;;
30127;SDS011;16942;53.196;6.592;2023-04-03T04:36:35;5.50;;;2.20;;
30127;SDS011;16942;53.196;6.592;2023-04-03T04:39:01;7.07;;;2.30;;
30127;SDS011;16942;53.196;6.592;2023-04-03T04:41:27;14.83;;;2.23;;
30127;SDS011;16942;53.196;6.592;2023-04-03T04:43:53;7.70;;;1.53;;
30127;SDS011;16942;53.196;6.592;2023-04-03T04:46:19;8.07;;;2.07;;
30127;SDS011;16942;53.196;6.592;2023-04-03T04:48:45;3.67;;;2.00;;
30127;SDS011;16942;53.196;6.592;2023-04-03T04:51:11;4.43;;;2.07;;
30127;SDS011;16942;53.196;6.592;2023-04-03T04:53:37;5.00;;;1.33;;
30127;SDS011;16942;53.196;6.592;2023-04-03T04:56:03;4.83;;;2.00;;
30127;SDS011;16942;53.196;6.592;2023-04-03T04:58:30;7.57;;;2.37;;
30127;SDS011;16942;53.196;6.592;2023-04-03T05:01:02;8.20;;;1.90;;
30127;SDS011;16942;53.196;6.592;2023-04-03T05:03:29;8.27;;;2.07;;
30127;SDS011;16942;53.196;6.592;2023-04-03T05:05:55;4.67;;;2.40;;
30127;SDS011;16942;53.196;6.592;2023-04-03T05:08:21;7.57;;;2.07;;
30127;SDS011;16942;53.196;6.592;2023-04-03T05:10:47;7.67;;;1.90;;
30127;SDS011;16942;53.196;6.592;2023-04-03T05:13:13;4.87;;;2.40;;
30127;SDS011;16942;53.196;6.592;2023-04-03T05:15:40;4.87;;;2.23;;
30127;SDS011;16942;53.196;6.592;2023-04-03T05:18:06;5.27;;;2.40;;
30127;SDS011;16942;53.196;6.592;2023-04-03T05:20:32;5.17;;;2.40;;
30127;SDS011;16942;53.196;6.592;2023-04-03T05:22:59;4.20;;;2.57;;
30127;SDS011;16942;53.196;6.592;2023-04-03T05:25:25;6.57;;;2.47;;
30127;SDS011;16942;53.196;6.592;2023-04-03T05:27:51;5.83;;;2.53;;
30127;SDS011;16942;53.196;6.592;2023-04-03T05:30:18;6.50;;;2.40;;
30127;SDS011;16942;53.196;6.592;2023-04-03T05:32:44;5.50;;;2.40;;
30127;SDS011;16942;53.196;6.592;2023-04-03T05:35:10;6.43;;;2.20;;
30127;SDS011;16942;53.196;6.592;2023-04-03T05:37:36;5.57;;;2.60;;
30127;SDS011;16942;53.196;6.592;2023-04-03T05:40:03;4.43;;;2.07;;
30127;SDS011;16942;53.196;6.592;2023-04-03T05:42:29;4.87;;;2.50;;
30127;SDS011;16942;53.196;6.592;2023-04-03T05:44:55;6.13;;;2.33;;
30127;SDS011;16942;53.196;6.592;2023-04-03T05:47:21;7.53;;;2.47;;
30127;SDS011;16942;53.196;6.592;2023-04-03T05:49:47;6.20;;;2.27;;
30127;SDS011;16942;53.196;6.592;2023-04-03T05:52:17;5.50;;;1.77;;
30127;SDS011;16942;53.196;6.592;2023-04-03T05:54:46;6.90;;;2.00;;
30127;SDS011;16942;53.196;6.592;2023-04-03T05:57:13;8.73;;;3.40;;
30127;SDS011;16942;53.196;6.592;2023-04-03T05:59:39;6.63;;;2.73;;
30127;SDS011;16942;53.196;6.592;2023-04-03T06:02:05;10.33;;;2.80;;
30127;SDS011;16942;53.196;6.592;2023-04-03T06:04:31;6.20;;;2.40;;
30127;SDS011;16942;53.196;6.592;2023-04-03T06:06:57;8.70;;;2.83;;
30127;SDS011;16942;53.196;6.592;2023-04-03T06:09:24;9.03;;;2.30;;
30127;SDS011;16942;53.196;6.592;2023-04-03T06:11:51;5.93;;;2.30;;
30127;SDS011;16942;53.196;6.592;2023-04-03T06:14:17;6.00;;;2.47;;
30127;SDS011;16942;53.196;6.592;2023-04-03T06:16:43;4.87;;;2.13;;
30127;SDS011;16942;53.196;6.592;2023-04-03T06:19:10;14.97;;;4.03;;
30127;SDS011;16942;53.196;6.592;2023-04-03T06:21:36;6.13;;;2.60;;
30127;SDS011;16942;53.196;6.592;2023-04-03T06:24:03;7.07;;;2.10;;
30127;SDS011;16942;53.196;6.592;2023-04-03T06:26:29;5.30;;;2.27;;
30127;SDS011;16942;53.196;6.592;2023-04-03T06:28:55;11.27;;;3.07;;
30127;SDS011;16942;53.196;6.592;2023-04-03T06:31:21;10.07;;;2.20;;
30127;SDS011;16942;53.196;6.592;2023-04-03T06:33:47;9.87;;;3.17;;
30127;SDS011;16942;53.196;6.592;2023-04-03T06:36:13;6.33;;;2.73;;
30127;SDS011;16942;53.196;6.592;2023-04-03T06:38:40;7.77;;;2.70;;
30127;SDS011;16942;53.196;6.592;2023-04-03T06:41:06;4.40;;;2.40;;
30127;SDS011;16942;53.196;6.592;2023-04-03T06:43:32;11.67;;;3.40;;
30127;SDS011;16942;53.196;6.592;2023-04-03T06:45:58;19.20;;;3.67;;
30127;SDS011;16942;53.196;6.592;2023-04-03T06:48:24;7.20;;;2.73;;
30127;SDS011;16942;53.196;6.592;2023-04-03T06:50:50;5.80;;;2.30;;
30127;SDS011;16942;53.196;6.592;2023-04-03T06:53:16;6.07;;;2.40;;
30127;SDS011;16942;53.196;6.592;2023-04-03T06:55:42;7.63;;;2.50;;
30127;SDS011;16942;53.196;6.592;2023-04-03T06:58:08;8.33;;;2.60;;
30127;SDS011;16942;53.196;6.592;2023-04-03T07:00:35;6.33;;;2.57;;
30127;SDS011;16942;53.196;6.592;2023-04-03T07:03:01;9.97;;;2.73;;
30127;SDS011;16942;53.196;6.592;2023-04-03T07:05:27;5.40;;;2.40;;
30127;SDS011;16942;53.196;6.592;2023-04-03T07:07:53;4.93;;;2.00;;
30127;SDS011;16942;53.196;6.592;2023-04-03T07:10:19;6.20;;;3.07;;
30127;SDS011;16942;53.196;6.592;2023-04-03T07:12:45;14.27;;;3.63;;
30127;SDS011;16942;53.196;6.592;2023-04-03T07:15:11;10.17;;;2.37;;
30127;SDS011;16942;53.196;6.592;2023-04-03T07:17:39;5.67;;;2.50;;
30127;SDS011;16942;53.196;6.592;2023-04-03T07:20:05;7.73;;;2.43;;
30127;SDS011;16942;53.196;6.592;2023-04-03T07:22:32;8.60;;;2.23;;
30127;SDS011;16942;53.196;6.592;2023-04-03T07:24:58;13.33;;;3.10;;
30127;SDS011;16942;53.196;6.592;2023-04-03T07:27:25;8.23;;;2.60;;
30127;SDS011;16942;53.196;6.592;2023-04-03T07:29:51;11.27;;;2.90;;
30127;SDS011;16942;53.196;6.592;2023-04-03T07:32:17;7.30;;;2.27;;
30127;SDS011;16942;53.196;6.592;2023-04-03T07:34:43;4.77;;;2.23;;
30127;SDS011;16942;53.196;6.592;2023-04-03T07:37:10;7.33;;;2.63;;
30127;SDS011;16942;53.196;6.592;2023-04-03T07:39:36;6.80;;;2.43;;
30127;SDS011;16942;53.196;6.592;2023-04-03T07:42:02;6.03;;;2.00;;
30127;SDS011;16942;53.196;6.592;2023-04-03T07:44:28;4.40;;;2.43;;
30127;SDS011;16942;53.196;6.592;2023-04-03T07:46:54;7.03;;;2.50;;
30127;SDS011;16942;53.196;6.592;2023-04-03T07:49:21;8.40;;;2.57;;
30127;SDS011;16942;53.196;6.592;2023-04-03T07:51:49;8.40;;;2.40;;
30127;SDS011;16942;53.196;6.592;2023-04-03T07:54:15;8.17;;;2.37;;
30127;SDS011;16942;53.196;6.592;2023-04-03T07:56:41;3.70;;;1.97;;
30127;SDS011;16942;53.196;6.592;2023-04-03T07:59:08;5.53;;;2.23;;
30127;SDS011;16942;53.196;6.592;2023-04-03T08:01:35;6.77;;;1.70;;
30127;SDS011;16942;53.196;6.592;2023-04-03T08:04:01;8.87;;;2.40;;
30127;SDS011;16942;53.196;6.592;2023-04-03T08:06:27;3.93;;;2.13;;
30127;SDS011;16942;53.196;6.592;2023-04-03T08:08:55;7.80;;;2.37;;
30127;SDS011;16942;53.196;6.592;2023-04-03T08:11:21;6.40;;;2.03;;
30127;SDS011;16942;53.196;6.592;2023-04-03T08:13:48;4.50;;;1.83;;
30127;SDS011;16942;53.196;6.592;2023-04-03T08:16:18;5.13;;;2.00;;
30127;SDS011;16942;53.196;6.592;2023-04-03T08:18:45;7.63;;;2.03;;
30127;SDS011;16942;53.196;6.592;2023-04-03T08:21:12;5.07;;;1.97;;
30127;SDS011;16942;53.196;6.592;2023-04-03T08:23:38;6.30;;;2.10;;
30127;SDS011;16942;53.196;6.592;2023-04-03T08:26:07;5.00;;;1.93;;
30127;SDS011;16942;53.196;6.592;2023-04-03T08:28:33;4.40;;;1.70;;
30127;SDS011;16942;53.196;6.592;2023-04-03T08:31:02;5.70;;;1.90;;
30127;SDS011;16942;53.196;6.592;2023-04-03T08:33:30;6.93;;;1.67;;
30127;SDS011;16942;53.196;6.592;2023-04-03T08:35:56;2.77;;;1.17;;
30127;SDS011;16942;53.196;6.592;2023-04-03T08:38:22;3.57;;;1.60;;
30127;SDS011;16942;53.196;6.592;2023-04-03T08:40:59;5.90;;;1.47;;
30127;SDS011;16942;53.196;6.592;2023-04-03T08:43:30;2.77;;;1.43;;
30127;SDS011;16942;53.196;6.592;2023-04-03T08:45:57;4.27;;;1.20;;
30127;SDS011;16942;53.196;6.592;2023-04-03T08:48:27;3.00;;;1.20;;
30127;SDS011;16942;53.196;6.592;2023-04-03T08:50:56;3.20;;;1.13;;
30127;SDS011;16942;53.196;6.592;2023-04-03T08:53:25;1.67;;;1.13;;
30127;SDS011;16942;53.196;6.592;2023-04-03T08:55:53;6.73;;;1.10;;
30127;SDS011;16942;53.196;6.592;2023-04-03T08:58:41;5.87;;;1.40;;
30127;SDS011;16942;53.196;6.592;2023-04-03T09:03:44;4.37;;;1.30;;
30127;SDS011;16942;53.196;6.592;2023-04-03T09:06:11;2.50;;;1.10;;
30127;SDS011;16942;53.196;6.592;2023-04-03T09:11:13;4.97;;;1.60;;
30127;SDS011;16942;53.196;6.592;2023-04-03T09:16:24;6.30;;;2.03;;
30127;SDS011;16942;53.196;6.592;2023-04-03T09:18:57;3.37;;;1.53;;
30127;SDS011;16942;53.196;6.592;2023-04-03T09:21:32;2.40;;;1.33;;
30127;SDS011;16942;53.196;6.592;2023-04-03T09:24:00;4.37;;;1.30;;
30127;SDS011;16942;53.196;6.592;2023-04-03T09:26:32;4.73;;;1.30;;
30127;SDS011;16942;53.196;6.592;2023-04-03T09:29:01;4.23;;;1.23;;
30127;SDS011;16942;53.196;6.592;2023-04-03T09:31:29;6.37;;;1.50;;
30127;SDS011;16942;53.196;6.592;2023-04-03T09:33:57;4.10;;;1.50;;
30127;SDS011;16942;53.196;6.592;2023-04-03T09:36:42;3.67;;;1.23;;
30127;SDS011;16942;53.196;6.592;2023-04-03T09:39:19;6.80;;;1.07;;
30127;SDS011;16942;53.196;6.592;2023-04-03T09:41:55;2.97;;;1.03;;
30127;SDS011;16942;53.196;6.592;2023-04-03T09:44:25;3.17;;;1.37;;
30127;SDS011;16942;53.196;6.592;2023-04-03T09:46:51;1.73;;;1.30;;
30127;SDS011;16942;53.196;6.592;2023-04-03T09:49:17;3.30;;;1.37;;
30127;SDS011;16942;53.196;6.592;2023-04-03T09:51:44;4.43;;;1.30;;
30127;SDS011;16942;53.196;6.592;2023-04-03T09:54:30;3.50;;;1.20;;
30127;SDS011;16942;53.196;6.592;2023-04-03T09:56:57;1.67;;;1.10;;
30127;SDS011;16942;53.196;6.592;2023-04-03T09:59:25;3.63;;;1.23;;
30127;SDS011;16942;53.196;6.592;2023-04-03T10:04:37;1.77;;;1.20;;
30127;SDS011;16942;53.196;6.592;2023-04-03T10:07:04;2.97;;;1.00;;
30127;SDS011;16942;53.196;6.592;2023-04-03T10:10:00;2.73;;;1.30;;
30127;SDS011;16942;53.196;6.592;2023-04-03T10:12:26;2.83;;;0.80;;
30127;SDS011;16942;53.196;6.592;2023-04-03T10:19:56;2.90;;;1.00;;
30127;SDS011;16942;53.196;6.592;2023-04-03T10:24:53;1.30;;;0.87;;
30127;SDS011;16942;53.196;6.592;2023-04-03T10:30:08;2.40;;;1.17;;
30127;SDS011;16942;53.196;6.592;2023-04-03T10:32:54;6.93;;;1.00;;
30127;SDS011;16942;53.196;6.592;2023-04-03T10:53:07;2.50;;;1.20;;
30127;SDS011;16942;53.196;6.592;2023-04-03T10:55:41;1.37;;;0.70;;
30127;SDS011;16942;53.196;6.592;2023-04-03T10:58:13;1.80;;;1.13;;
30127;SDS011;16942;53.196;6.592;2023-04-03T11:00:45;1.27;;;0.90;;
30127;SDS011;16942;53.196;6.592;2023-04-03T11:03:13;1.07;;;0.93;;
30127;SDS011;16942;53.196;6.592;2023-04-03T11:05:41;1.27;;;0.80;;
30127;SDS011;16942;53.196;6.592;2023-04-03T11:08:12;1.60;;;0.80;;
30127;SDS011;16942;53.196;6.592;2023-04-03T11:10:44;1.27;;;0.80;;
30127;SDS011;16942;53.196;6.592;2023-04-03T11:13:15;2.10;;;0.87;;
30127;SDS011;16942;53.196;6.592;2023-04-03T11:15:43;1.80;;;0.90;;
30127;SDS011;16942;53.196;6.592;2023-04-03T11:18:19;3.50;;;0.80;;
30127;SDS011;16942;53.196;6.592;2023-04-03T11:20:57;4.07;;;1.10;;
30127;SDS011;16942;53.196;6.592;2023-04-03T11:23:26;3.50;;;0.97;;
30127;SDS011;16942;53.196;6.592;2023-04-03T11:25:53;2.40;;;0.97;;
30127;SDS011;16942;53.196;6.592;2023-04-03T11:28:20;2.17;;;0.80;;
30127;SDS011;16942;53.196;6.592;2023-04-03T11:30:47;3.53;;;0.90;;
30127;SDS011;16942;53.196;6.592;2023-04-03T11:35:47;1.50;;;0.80;;
30127;SDS011;16942;53.196;6.592;2023-04-03T11:38:23;3.20;;;0.90;;
30127;SDS011;16942;53.196;6.592;2023-04-03T11:40:51;3.87;;;0.80;;
30127;SDS011;16942;53.196;6.592;2023-04-03T11:43:28;1.27;;;0.83;;
30127;SDS011;16942;53.196;6.592;2023-04-03T11:45:56;4.73;;;1.00;;
30127;SDS011;16942;53.196;6.592;2023-04-03T11:50:53;2.00;;;0.87;;
30127;SDS011;16942;53.196;6.592;2023-04-03T11:53:39;1.63;;;0.87;;
30127;SDS011;16942;53.196;6.592;2023-04-03T12:04:10;1.80;;;0.90;;
30127;SDS011;16942;53.196;6.592;2023-04-03T12:09:21;3.63;;;1.10;;
30127;SDS011;16942;53.196;6.592;2023-04-03T12:11:48;1.97;;;1.00;;
30127;SDS011;16942;53.196;6.592;2023-04-03T12:14:15;1.73;;;1.00;;
30127;SDS011;16942;53.196;6.592;2023-04-03T12:16:42;1.37;;;1.17;;
30127;SDS011;16942;53.196;6.592;2023-04-03T12:24:28;2.10;;;0.80;;
30127;SDS011;16942;53.196;6.592;2023-04-03T12:42:32;3.07;;;1.10;;
30127;SDS011;16942;53.196;6.592;2023-04-03T12:47:34;5.63;;;1.10;;
30127;SDS011;16942;53.196;6.592;2023-04-03T12:50:03;2.53;;;1.45;;
30127;SDS011;16942;53.196;6.592;2023-04-03T12:52:34;8.63;;;1.55;;
30127;SDS011;16942;53.196;6.592;2023-04-03T12:55:03;5.05;;;1.00;;
30127;SDS011;16942;53.196;6.592;2023-04-03T12:57:29;1.13;;;0.80;;
30127;SDS011;16942;53.196;6.592;2023-04-03T12:59:57;2.80;;;1.10;;
30127;SDS011;16942;53.196;6.592;2023-04-03T13:02:27;1.80;;;1.00;;
30127;SDS011;16942;53.196;6.592;2023-04-03T13:04:58;2.78;;;0.90;;
30127;SDS011;16942;53.196;6.592;2023-04-03T13:07:26;2.72;;;1.08;;
30127;SDS011;16942;53.196;6.592;2023-04-03T13:12:32;2.00;;;0.98;;
30127;SDS011;16942;53.196;6.592;2023-04-03T13:15:00;4.53;;;1.30;;
30127;SDS011;16942;53.196;6.592;2023-04-03T13:17:29;3.33;;;1.30;;
30127;SDS011;16942;53.196;6.592;2023-04-03T13:19:55;2.20;;;1.30;;
30127;SDS011;16942;53.196;6.592;2023-04-03T13:22:28;4.47;;;1.10;;
30127;SDS011;16942;53.196;6.592;2023-04-03T13:24:58;2.92;;;1.27;;
30127;SDS011;16942;53.196;6.592;2023-04-03T13:27:25;4.38;;;1.20;;
30127;SDS011;16942;53.196;6.592;2023-04-03T13:29:52;3.05;;;1.38;;
30127;SDS011;16942;53.196;6.592;2023-04-03T13:32:23;1.92;;;1.05;;
30127;SDS011;16942;53.196;6.592;2023-04-03T13:34:50;3.75;;;1.35;;
30127;SDS011;16942;53.196;6.592;2023-04-03T13:37:28;2.78;;;1.15;;
30127;SDS011;16942;53.196;6.592;2023-04-03T13:42:24;7.53;;;2.47;;
30127;SDS011;16942;53.196;6.592;2023-04-03T13:47:40;3.78;;;1.35;;
30127;SDS011;16942;53.196;6.592;2023-04-03T13:52:43;2.53;;;1.30;;
30127;SDS011;16942;53.196;6.592;2023-04-03T13:57:48;1.55;;;1.10;;
30127;SDS011;16942;53.196;6.592;2023-04-03T14:00:19;3.60;;;1.25;;
30127;SDS011;16942;53.196;6.592;2023-04-03T14:02:46;3.95;;;1.60;;
30127;SDS011;16942;53.196;6.592;2023-04-03T14:05:12;4.95;;;1.33;;
30127;SDS011;16942;53.196;6.592;2023-04-03T14:07:39;5.63;;;1.40;;
30127;SDS011;16942;53.196;6.592;2023-04-03T14:10:05;2.53;;;1.30;;
30127;SDS011;16942;53.196;6.592;2023-04-03T14:12:32;1.20;;;1.10;;
30127;SDS011;16942;53.196;6.592;2023-04-03T14:15:02;1.40;;;1.30;;
30127;SDS011;16942;53.196;6.592;2023-04-03T14:17:29;8.57;;;1.65;;
30127;SDS011;16942;53.196;6.592;2023-04-03T14:19:56;3.85;;;1.40;;
30127;SDS011;16942;53.196;6.592;2023-04-03T14:24:49;4.50;;;1.23;;
30127;SDS011;16942;53.196;6.592;2023-04-03T14:27:23;2.25;;;1.20;;
30127;SDS011;16942;53.196;6.592;2023-04-03T14:29:49;1.40;;;1.20;;
30127;SDS011;16942;53.196;6.592;2023-04-03T14:32:16;2.78;;;1.30;;
30127;SDS011;16942;53.196;6.592;2023-04-03T14:34:42;3.92;;;1.38;;
30127;SDS011;16942;53.196;6.592;2023-04-03T14:37:09;5.00;;;1.52;;
30127;SDS011;16942;53.196;6.592;2023-04-03T14:39:35;2.22;;;1.30;;
30127;SDS011;16942;53.196;6.592;2023-04-03T14:42:01;1.45;;;0.95;;
30127;SDS011;16942;53.196;6.592;2023-04-03T14:44:27;2.58;;;1.27;;
30127;SDS011;16942;53.196;6.592;2023-04-03T14:46:53;12.93;;;1.75;;
30127;SDS011;16942;53.196;6.592;2023-04-03T14:49:22;4.93;;;1.40;;
30127;SDS011;16942;53.196;6.592;2023-04-03T14:51:50;13.13;;;1.75;;
30127;SDS011;16942;53.196;6.592;2023-04-03T14:54:20;1.67;;;1.23;;
30127;SDS011;16942;53.196;6.592;2023-04-03T14:56:52;2.80;;;1.60;;
30127;SDS011;16942;53.196;6.592;2023-04-03T14:59:18;1.73;;;1.27;;
30127;SDS011;16942;53.196;6.592;2023-04-03T15:01:46;2.45;;;1.15;;
30127;SDS011;16942;53.196;6.592;2023-04-03T15:04:13;3.15;;;1.70;;
30127;SDS011;16942;53.196;6.592;2023-04-03T15:06:39;6.65;;;2.20;;
30127;SDS011;16942;53.196;6.592;2023-04-03T15:09:08;7.50;;;2.40;;
30127;SDS011;16942;53.196;6.592;2023-04-03T15:11:37;1.88;;;1.13;;
30127;SDS011;16942;53.196;6.592;2023-04-03T15:14:03;2.80;;;1.35;;
30127;SDS011;16942;53.196;6.592;2023-04-03T15:16:29;3.60;;;1.27;;
30127;SDS011;16942;53.196;6.592;2023-04-03T15:18:55;4.60;;;1.88;;
30127;SDS011;16942;53.196;6.592;2023-04-03T15:21:21;1.50;;;1.15;;
30127;SDS011;16942;53.196;6.592;2023-04-03T15:23:47;3.15;;;1.20;;
30127;SDS011;16942;53.196;6.592;2023-04-03T15:26:13;4.13;;;1.40;;
30127;SDS011;16942;53.196;6.592;2023-04-03T15:28:41;2.50;;;1.50;;
30127;SDS011;16942;53.196;6.592;2023-04-03T15:31:07;3.10;;;1.67;;
30127;SDS011;16942;53.196;6.592;2023-04-03T15:33:34;2.85;;;1.38;;
30127;SDS011;16942;53.196;6.592;2023-04-03T15:36:01;5.10;;;1.95;;
30127;SDS011;16942;53.196;6.592;2023-04-03T15:38:27;4.22;;;1.70;;
30127;SDS011;16942;53.196;6.592;2023-04-03T15:40:53;2.75;;;1.50;;
30127;SDS011;16942;53.196;6.592;2023-04-03T15:43:20;1.42;;;1.33;;
30127;SDS011;16942;53.196;6.592;2023-04-03T15:45:46;3.67;;;1.95;;
30127;SDS011;16942;53.196;6.592;2023-04-03T15:48:12;3.85;;;1.40;;
30127;SDS011;16942;53.196;6.592;2023-04-03T15:50:38;6.45;;;1.73;;
30127;SDS011;16942;53.196;6.592;2023-04-03T15:53:05;2.15;;;1.10;;
30127;SDS011;16942;53.196;6.592;2023-04-03T15:55:32;6.78;;;1.52;;
30127;SDS011;16942;53.196;6.592;2023-04-03T15:57:58;3.53;;;1.38;;
30127;SDS011;16942;53.196;6.592;2023-04-03T16:00:25;2.65;;;1.10;;
30127;SDS011;16942;53.196;6.592;2023-04-03T16:02:58;4.53;;;1.38;;
30127;SDS011;16942;53.196;6.592;2023-04-03T16:05:26;2.15;;;1.15;;
30127;SDS011;16942;53.196;6.592;2023-04-03T16:07:53;2.15;;;1.20;;
30127;SDS011;16942;53.196;6.592;2023-04-03T16:10:20;3.97;;;1.10;;
30127;SDS011;16942;53.196;6.592;2023-04-03T16:12:46;3.55;;;1.10;;
30127;SDS011;16942;53.196;6.592;2023-04-03T16:15:12;2.63;;;1.08;;
30127;SDS011;16942;53.196;6.592;2023-04-03T16:17:38;2.88;;;1.30;;
30127;SDS011;16942;53.196;6.592;2023-04-03T16:20:06;1.00;;;0.80;;
30127;SDS011;16942;53.196;6.592;2023-04-03T16:22:32;1.30;;;1.00;;
30127;SDS011;16942;53.196;6.592;2023-04-03T16:24:58;2.25;;;0.90;;
30127;SDS011;16942;53.196;6.592;2023-04-03T16:27:24;1.80;;;1.05;;